Terminal Aerodrome Forecast
Issued by NWS

Home | Current Version | Previous Version | Text Only | Print | Product List | Glossary On
Versions: 1 2 3 4 5 6 7 8 9 10 11 12 13 14 15 16 17 18 19 20 21 22 23 24 25
000
FTUS41 KBTV 271737
TAFMSS
TAF
KMSS 271737Z 2718/2818 23012G19KT P6SM BKN040 OVC060
     FM272200 26009KT P6SM BKN040
     FM280000 26005KT P6SM SCT150
     FM280400 20004KT P6SM SCT200
     FM281100 09004KT P6SM SCT200
     FM281700 10006KT P6SM BKN090=

USA.gov is the U.S. government's official web portal to all federal, state and local government web resources and services.